TimeEST,TemperatureF,Dew PointF,Humidity,Sea Level PressureIn,VisibilityMPH,Wind Direction,Wind SpeedMPH,Gust SpeedMPH,PrecipitationIn,Events,Conditions,WindDirDegrees,DateUTC
12:14 AM,14.0,3.2,62,30.48,10.0,East,5.8,-,N/A,,Clear,80,2013-01-25 05:14:00
12:34 AM,15.8,5.0,62,30.47,10.0,Calm,Calm,-,N/A,,Scattered Clouds,0,2013-01-25 05:34:00
12:54 AM,15.8,6.8,68,30.46,10.0,ENE,3.5,-,N/A,,Mostly Cloudy,60,2013-01-25 05:54:00
1:14 AM,15.8,6.8,68,30.45,10.0,ENE,3.5,-,N/A,,Overcast,60,2013-01-25 06:14:00
1:34 AM,15.8,6.8,68,30.44,10.0,ENE,4.6,-,N/A,,Overcast,60,2013-01-25 06:34:00
1:54 AM,15.8,6.8,68,30.44,10.0,NE,3.5,-,N/A,,Overcast,50,2013-01-25 06:54:00
2:14 AM,15.8,6.8,68,30.44,10.0,Calm,Calm,-,N/A,,Overcast,0,2013-01-25 07:14:00
2:34 AM,15.8,8.6,73,30.44,10.0,Calm,Calm,-,N/A,,Overcast,0,2013-01-25 07:34:00
2:54 AM,15.8,8.6,73,30.43,10.0,Calm,Calm,-,N/A,,Overcast,0,2013-01-25 07:54:00
3:14 AM,15.8,8.6,73,30.41,10.0,Calm,Calm,-,N/A,,Overcast,0,2013-01-25 08:14:00
3:35 AM,15.8,8.6,73,30.39,10.0,Calm,Calm,-,N/A,,Overcast,0,2013-01-25 08:35:00
3:54 AM,15.8,8.6,73,30.38,10.0,Calm,Calm,-,N/A,,Overcast,0,2013-01-25 08:54:00
4:14 AM,17.6,8.6,68,30.37,10.0,Calm,Calm,-,N/A,,Overcast,0,2013-01-25 09:14:00
4:35 AM,19.4,3.2,49,30.35,10.0,SSE,9.2,-,N/A,,Overcast,160,2013-01-25 09:35:00
4:54 AM,19.4,3.2,49,30.34,10.0,South,6.9,-,N/A,,Overcast,170,2013-01-25 09:54:00
5:14 AM,19.4,1.4,46,30.33,10.0,SSE,9.2,-,N/A,,Overcast,160,2013-01-25 10:14:00
5:34 AM,19.4,1.4,46,30.32,10.0,SSE,9.2,-,N/A,,Overcast,160,2013-01-25 10:34:00
5:54 AM,19.4,3.2,49,30.29,10.0,SSE,10.4,-,N/A,,Overcast,150,2013-01-25 10:54:00
6:14 AM,19.4,1.4,46,30.28,10.0,SE,9.2,-,N/A,,Overcast,140,2013-01-25 11:14:00
6:34 AM,19.4,3.2,49,30.28,10.0,SE,8.1,-,N/A,,Overcast,140,2013-01-25 11:34:00
6:54 AM,19.4,1.4,46,30.27,10.0,SE,9.2,-,N/A,,Overcast,140,2013-01-25 11:54:00
7:14 AM,19.4,3.2,49,30.26,10.0,SSE,10.4,-,N/A,,Overcast,150,2013-01-25 12:14:00
7:34 AM,19.4,5.0,54,30.25,10.0,SSE,10.4,-,N/A,,Overcast,150,2013-01-25 12:34:00
7:54 AM,19.4,8.6,63,30.24,10.0,SSE,9.2,-,N/A,,Overcast,150,2013-01-25 12:54:00
8:34 AM,19.4,8.6,63,30.21,10.0,SSE,9.2,-,N/A,,Overcast,150,2013-01-25 13:34:00
8:54 AM,19.4,8.6,63,30.20,10.0,SE,11.5,-,N/A,,Overcast,140,2013-01-25 13:54:00
9:15 AM,19.4,10.4,68,30.20,10.0,SSE,11.5,16.1,N/A,,Overcast,160,2013-01-25 14:15:00
9:34 AM,19.4,10.4,68,30.19,10.0,SSE,11.5,-,N/A,,Overcast,160,2013-01-25 14:34:00
9:54 AM,19.4,10.4,68,30.19,10.0,SSE,9.2,-,N/A,,Overcast,150,2013-01-25 14:54:00
10:14 AM,19.4,10.4,68,30.18,7.0,SSE,12.7,17.3,N/A,,Overcast,150,2013-01-25 15:14:00
10:34 AM,19.4,14.0,80,30.18,1.0,SSE,13.8,17.3,N/A,Snow,Light Snow,160,2013-01-25 15:34:00
10:54 AM,19.4,15.8,86,30.17,1.0,SSE,9.2,-,N/A,Snow,Light Snow,150,2013-01-25 15:54:00
11:14 AM,19.4,15.8,86,30.16,0.8,South,12.7,-,N/A,Snow,Light Snow,170,2013-01-25 16:14:00
11:34 AM,19.4,15.8,86,30.15,0.8,SSE,11.5,-,N/A,Snow,Light Snow,160,2013-01-25 16:34:00
11:54 AM,19.4,15.8,86,30.13,0.8,South,13.8,-,N/A,Snow,Light Snow,170,2013-01-25 16:54:00
12:14 PM,19.4,14.0,80,30.13,1.5,South,12.7,-,N/A,Snow,Light Snow,170,2013-01-25 17:14:00
12:34 PM,19.4,15.8,86,30.12,1.5,SSE,10.4,-,N/A,Snow,Light Snow,160,2013-01-25 17:34:00
12:54 PM,19.4,15.8,86,30.09,2.0,SSE,10.4,-,N/A,Snow,Light Snow,160,2013-01-25 17:54:00
1:14 PM,19.4,12.2,74,30.08,2.0,SSE,9.2,-,N/A,Snow,Light Snow,150,2013-01-25 18:14:00
1:34 PM,19.4,14.0,80,30.07,2.5,South,8.1,-,N/A,Snow,Light Snow,170,2013-01-25 18:34:00
1:55 PM,19.4,14.0,80,30.05,4.0,SSE,9.2,-,N/A,Snow,Light Snow,150,2013-01-25 18:55:00
2:14 PM,19.4,14.0,80,30.05,5.0,SSE,8.1,-,N/A,Snow,Light Snow,160,2013-01-25 19:14:00
2:34 PM,19.4,14.0,80,30.04,7.0,SSE,8.1,-,N/A,Snow,Light Snow,160,2013-01-25 19:34:00
2:55 PM,19.4,14.0,80,30.03,4.0,SSE,8.1,-,N/A,Snow,Light Snow,150,2013-01-25 19:55:00
3:14 PM,19.4,14.0,80,30.03,3.0,South,9.2,-,N/A,Snow,Light Snow,170,2013-01-25 20:14:00
3:34 PM,19.4,14.0,80,30.02,2.5,SSE,8.1,-,N/A,Snow,Light Snow,160,2013-01-25 20:34:00
3:54 PM,19.4,15.8,86,30.02,2.5,SSE,6.9,-,N/A,Snow,Light Snow,160,2013-01-25 20:54:00
4:14 PM,19.4,15.8,86,30.02,3.0,SSE,6.9,-,N/A,Snow,Light Snow,150,2013-01-25 21:14:00
4:34 PM,19.4,15.8,86,30.02,3.0,SSE,5.8,-,N/A,Snow,Light Snow,160,2013-01-25 21:34:00
4:54 PM,19.4,15.8,86,30.01,3.0,SSE,5.8,-,N/A,Snow,Light Snow,160,2013-01-25 21:54:00
5:14 PM,19.4,15.8,86,30.01,3.0,South,6.9,-,N/A,Snow,Light Snow,180,2013-01-25 22:14:00
5:34 PM,19.4,15.8,86,30.01,3.0,South,8.1,-,N/A,Snow,Light Snow,190,2013-01-25 22:34:00
5:54 PM,19.4,15.8,86,30.00,10.0,South,9.2,-,N/A,Snow,Light Snow,180,2013-01-25 22:54:00
6:14 PM,19.4,15.8,86,30.01,10.0,SSW,9.2,-,N/A,Snow,Light Snow,200,2013-01-25 23:14:00
6:34 PM,19.4,15.8,86,30.01,10.0,SSW,6.9,-,N/A,Snow,Light Snow,200,2013-01-25 23:34:00
6:54 PM,19.4,15.8,86,30.02,4.0,SSW,4.6,-,N/A,Snow,Light Snow,210,2013-01-25 23:54:00
7:14 PM,19.4,15.8,86,30.02,1.8,SSW,4.6,-,N/A,Snow,Light Snow,210,2013-01-26 00:14:00
7:34 PM,19.4,15.8,86,30.03,1.5,SW,4.6,-,N/A,Snow,Light Snow,230,2013-01-26 00:34:00
7:54 PM,19.4,15.8,86,30.03,1.2,Calm,Calm,-,N/A,Snow,Snow,0,2013-01-26 00:54:00
8:14 PM,19.4,15.8,86,30.03,2.5,Calm,Calm,-,N/A,Snow,Light Snow,0,2013-01-26 01:14:00
8:34 PM,19.4,15.8,86,30.03,5.0,Calm,Calm,-,N/A,Snow,Light Snow,0,2013-01-26 01:34:00
8:54 PM,19.4,15.8,86,30.03,3.0,Calm,Calm,-,N/A,Snow,Light Snow,0,2013-01-26 01:54:00
9:15 PM,19.4,15.8,86,30.03,2.5,Calm,Calm,-,N/A,Snow,Light Snow,0,2013-01-26 02:15:00
9:34 PM,19.4,15.8,86,30.03,4.0,South,3.5,-,N/A,Snow,Light Snow,190,2013-01-26 02:34:00
9:54 PM,19.4,15.8,86,30.03,5.0,South,3.5,-,N/A,Snow,Light Snow,180,2013-01-26 02:54:00
10:14 PM,19.4,15.8,86,30.03,10.0,South,4.6,-,N/A,Snow,Light Snow,180,2013-01-26 03:14:00
10:34 PM,19.4,15.8,86,30.03,7.0,Calm,Calm,-,N/A,Snow,Light Snow,0,2013-01-26 03:34:00
10:54 PM,19.4,17.6,93,30.03,7.0,South,4.6,-,N/A,Snow,Light Snow,170,2013-01-26 03:54:00
11:14 PM,19.4,17.6,93,30.03,7.0,South,6.9,-,N/A,Snow,Light Snow,180,2013-01-26 04:14:00
11:54 PM,21.2,17.6,86,30.03,4.0,SSW,4.6,-,N/A,Snow,Light Snow,200,2013-01-26 04:54:00